Time;durP1;ratioP1;P1;durP2;ratioP2;P2;SDS_P1;SDS_P2;PMS_P1;PMS_P2;Temp;Humidity;BMP_temperature;BMP_pressure;BME280_temperature;BME280_humidity;BME280_pressure;Samples;Min_cycle;Max_cycle;Signal;HPM_P1;HPM_P2
2022/01/08 00:00:27;;;;;;;1.63;1.30;;;4.00;99.90;;;;;;4993532;28;20185;-63
2022/01/08 00:02:54;;;;;;;3.77;1.53;;;4.00;99.90;;;;;;4993472;28;20439;-63
2022/01/08 00:05:20;;;;;;;1.83;1.43;;;4.10;99.90;;;;;;4993528;28;20436;-63
2022/01/08 00:07:46;;;;;;;1.63;1.30;;;4.10;99.90;;;;;;5001747;28;20421;-63
2022/01/08 00:10:12;;;;;;;3.43;1.23;;;4.00;99.90;;;;;;5013111;28;20187;-63
2022/01/08 00:12:38;;;;;;;1.87;1.73;;;3.90;99.90;;;;;;5013160;28;20406;-63
2022/01/08 00:15:06;;;;;;;1.83;1.30;;;4.00;99.90;;;;;;5013396;28;20602;-63
2022/01/08 00:17:33;;;;;;;1.50;1.20;;;4.00;99.90;;;;;;5017091;28;20446;-63
2022/01/08 00:19:58;;;;;;;1.67;1.40;;;4.00;99.90;;;;;;5017115;28;20473;-63
2022/01/08 00:22:24;;;;;;;2.80;1.67;;;4.10;99.90;;;;;;5017040;28;20899;-63
2022/01/08 00:24:52;;;;;;;1.10;1.00;;;4.10;99.90;;;;;;5016992;28;20164;-63
2022/01/08 00:27:22;;;;;;;2.57;1.70;;;4.10;99.90;;;;;;5017061;28;20172;-63
2022/01/08 00:29:48;;;;;;;1.87;1.70;;;4.10;99.90;;;;;;5016966;28;20702;-63
2022/01/08 00:32:14;;;;;;;3.27;2.17;;;4.00;99.90;;;;;;5016778;28;20473;-63
2022/01/08 00:34:41;;;;;;;3.90;2.27;;;4.00;99.90;;;;;;5016930;28;20434;-63
2022/01/08 00:37:06;;;;;;;1.93;1.80;;;4.10;99.90;;;;;;5016457;28;20411;-63
2022/01/08 00:39:33;;;;;;;2.07;1.90;;;4.10;99.90;;;;;;5016898;28;20437;-63
2022/01/08 00:41:59;;;;;;;2.00;1.80;;;4.10;99.90;;;;;;5016818;28;20546;-63
2022/01/08 00:44:24;;;;;;;2.07;1.70;;;4.20;99.90;;;;;;5016645;28;20411;-63
2022/01/08 00:46:50;;;;;;;2.90;2.00;;;4.20;99.90;;;;;;5016451;28;20417;-63
2022/01/08 00:49:16;;;;;;;1.83;1.70;;;4.20;99.90;;;;;;5016398;28;20719;-63
2022/01/08 00:51:41;;;;;;;2.50;2.07;;;4.20;99.90;;;;;;5016315;28;20172;-63
2022/01/08 00:54:07;;;;;;;2.30;1.83;;;4.30;99.90;;;;;;5016243;28;20260;-63
2022/01/08 00:56:32;;;;;;;1.90;1.70;;;4.30;99.90;;;;;;5016451;28;20633;-63
2022/01/08 00:58:58;;;;;;;3.60;2.63;;;4.20;99.90;;;;;;5016442;28;20192;-62
2022/01/08 01:01:24;;;;;;;2.70;2.50;;;4.20;99.90;;;;;;5016418;28;20160;-63
2022/01/08 01:03:49;;;;;;;2.90;2.47;;;4.20;99.90;;;;;;5016391;28;20164;-63
2022/01/08 01:06:15;;;;;;;3.30;2.20;;;4.30;99.90;;;;;;4998362;28;20201;-62
2022/01/08 01:08:41;;;;;;;2.30;2.10;;;4.30;99.90;;;;;;5015991;28;20199;-61
2022/01/08 01:11:06;;;;;;;2.90;2.10;;;4.20;99.90;;;;;;5016338;28;20683;-61
2022/01/08 01:13:32;;;;;;;1.90;1.80;;;4.20;99.90;;;;;;5016197;28;20181;-62
2022/01/08 01:15:58;;;;;;;2.90;2.33;;;4.20;99.90;;;;;;5015808;28;20584;-63
2022/01/08 01:18:23;;;;;;;2.07;1.83;;;4.30;99.90;;;;;;5016067;28;20168;-63
2022/01/08 01:20:50;;;;;;;3.50;2.77;;;4.20;99.90;;;;;;5015976;28;20219;-63
2022/01/08 01:23:21;;;;;;;3.10;2.70;;;4.30;99.90;;;;;;5016377;28;20167;-63
2022/01/08 01:25:54;;;;;;;2.30;2.10;;;4.40;99.90;;;;;;5016033;28;20403;-63
2022/01/08 01:47:05;;;;;;;2.10;2.00;;;4.60;99.90;;;;;;5017785;28;20438;-63
2022/01/08 01:49:40;;;;;;;2.67;2.20;;;4.50;99.90;;;;;;5027464;28;20433;-63
2022/01/08 01:52:07;;;;;;;3.07;2.53;;;4.50;99.90;;;;;;5027608;28;20418;-63
2022/01/08 01:54:33;;;;;;;2.33;2.13;;;4.40;99.90;;;;;;5026467;28;20438;-63
2022/01/08 01:57:01;;;;;;;2.07;1.87;;;4.40;99.90;;;;;;5025686;28;20410;-62
2022/01/08 01:59:28;;;;;;;2.30;2.20;;;4.50;99.90;;;;;;5016107;28;20497;-62
2022/01/08 02:01:54;;;;;;;2.60;2.40;;;4.40;99.90;;;;;;4998621;28;20771;-63
2022/01/08 02:04:20;;;;;;;2.33;2.13;;;4.40;99.90;;;;;;5015748;28;20506;-63
2022/01/08 02:06:46;;;;;;;2.90;1.80;;;4.40;99.90;;;;;;5015765;28;20435;-62
2022/01/08 02:09:12;;;;;;;3.20;2.30;;;4.30;99.90;;;;;;5015712;28;20207;-62
2022/01/08 02:12:03;;;;;;;2.80;2.07;;;4.40;99.90;;;;;;5024300;28;20407;-63
2022/01/08 02:14:30;;;;;;;2.40;1.90;;;4.40;99.90;;;;;;5026125;28;20434;-63
2022/01/08 02:16:57;;;;;;;2.73;2.37;;;4.40;99.90;;;;;;5016927;28;20423;-63
2022/01/08 02:19:22;;;;;;;2.70;2.20;;;4.50;99.90;;;;;;5017156;28;20471;-62
2022/01/08 02:21:53;;;;;;;2.23;2.03;;;4.30;99.90;;;;;;5016584;28;20407;-63
2022/01/08 02:24:20;;;;;;;2.00;1.80;;;4.50;99.90;;;;;;5016884;28;20290;-63
2022/01/08 02:26:47;;;;;;;2.40;2.20;;;4.50;99.90;;;;;;5015120;28;20896;-61
2022/01/08 02:29:13;;;;;;;2.50;1.87;;;4.60;99.90;;;;;;5027876;28;20450;-63
2022/01/08 02:31:40;;;;;;;1.77;1.67;;;4.70;99.90;;;;;;5005845;28;20770;-63
2022/01/08 02:34:06;;;;;;;2.70;2.17;;;4.70;99.90;;;;;;5010668;28;20483;-63
2022/01/08 02:36:34;;;;;;;5.47;2.20;;;4.90;99.90;;;;;;4985805;28;20411;-63
2022/01/08 02:38:59;;;;;;;3.37;2.27;;;4.90;99.90;;;;;;5025101;28;20492;-63
2022/01/08 02:41:27;;;;;;;1.30;1.20;;;5.00;99.90;;;;;;5030749;28;20763;-63
2022/01/08 02:43:53;;;;;;;1.73;1.37;;;5.00;99.90;;;;;;5026897;28;20200;-63
2022/01/08 02:46:22;;;;;;;1.60;1.50;;;5.10;99.90;;;;;;5020556;28;20470;-63
2022/01/08 02:48:48;;;;;;;5.33;1.50;;;5.00;99.90;;;;;;5014995;28;20947;-63
2022/01/08 02:51:13;;;;;;;2.40;1.47;;;4.90;99.90;;;;;;5014334;28;20419;-63
2022/01/08 02:53:39;;;;;;;1.87;1.27;;;4.80;99.90;;;;;;4996606;28;20179;-64
2022/01/08 02:56:05;;;;;;;3.50;1.50;;;4.80;99.90;;;;;;5014640;28;20210;-63
2022/01/08 02:58:32;;;;;;;1.50;1.40;;;4.80;99.90;;;;;;5014156;28;20434;-63
2022/01/08 03:00:58;;;;;;;1.60;1.50;;;4.80;99.90;;;;;;5014210;28;20434;-64
2022/01/08 03:03:23;;;;;;;2.83;1.30;;;5.00;99.90;;;;;;4991785;28;20464;-62
2022/01/08 03:05:49;;;;;;;2.50;1.17;;;4.90;99.90;;;;;;4982906;28;20511;-63
2022/01/08 03:08:15;;;;;;;2.17;1.60;;;4.90;99.90;;;;;;4999484;28;20279;-63
2022/01/08 03:10:41;;;;;;;1.90;1.63;;;4.80;99.90;;;;;;5013468;28;20983;-64
2022/01/08 03:13:07;;;;;;;2.73;1.60;;;4.90;99.90;;;;;;5014018;28;20168;-63
2022/01/08 03:15:35;;;;;;;2.67;1.40;;;5.00;99.90;;;;;;5013648;28;20195;-63
2022/01/08 03:18:02;;;;;;;2.33;1.83;;;4.90;99.90;;;;;;5014312;28;20495;-62
2022/01/08 03:20:28;;;;;;;2.20;1.60;;;4.90;99.90;;;;;;5013678;28;20431;-62
2022/01/08 03:23:01;;;;;;;3.77;1.30;;;4.90;99.90;;;;;;5013573;28;20410;-63
2022/01/08 03:25:27;;;;;;;1.70;1.50;;;5.00;99.90;;;;;;5014150;28;20164;-62
2022/01/08 03:27:53;;;;;;;1.57;1.47;;;4.80;99.90;;;;;;5013552;28;20565;-63
2022/01/08 03:30:19;;;;;;;2.60;1.40;;;4.80;99.90;;;;;;5022698;22;20232;-63
2022/01/08 03:32:45;;;;;;;1.43;1.33;;;4.90;99.90;;;;;;4994307;28;20400;-61
2022/01/08 03:35:11;;;;;;;2.10;1.40;;;4.90;99.90;;;;;;4977238;28;20538;-61
2022/01/08 03:37:37;;;;;;;2.23;1.50;;;4.90;99.90;;;;;;4994490;28;20404;-61
2022/01/08 03:40:04;;;;;;;4.03;2.10;;;4.70;99.90;;;;;;4994927;28;20794;-61
2022/01/08 03:42:30;;;;;;;1.67;1.50;;;4.70;99.90;;;;;;4994686;28;20168;-62
2022/01/08 03:44:56;;;;;;;3.10;1.87;;;4.60;99.90;;;;;;4995156;28;20842;-61
2022/01/08 03:49:53;;;;;;;2.30;1.93;;;4.60;99.90;;;;;;4994271;28;20275;-62
2022/01/08 03:52:19;;;;;;;2.17;1.90;;;4.70;99.90;;;;;;4994881;28;20408;-61
2022/01/08 03:54:45;;;;;;;2.00;1.90;;;4.60;99.90;;;;;;4994756;28;20463;-61
2022/01/08 03:57:11;;;;;;;1.80;1.60;;;4.50;99.90;;;;;;4994882;28;20416;-62
2022/01/08 03:59:36;;;;;;;3.43;2.40;;;4.60;99.90;;;;;;4994280;28;20643;-61
2022/01/08 04:02:03;;;;;;;2.03;1.83;;;4.60;99.90;;;;;;4994130;28;20528;-62
2022/01/08 04:04:28;;;;;;;2.30;2.10;;;4.50;99.90;;;;;;4994562;28;20223;-62
2022/01/08 04:06:54;;;;;;;2.10;1.93;;;4.50;99.90;;;;;;4994567;28;20410;-62
2022/01/08 04:09:20;;;;;;;2.60;2.40;;;4.50;99.90;;;;;;4994328;28;20168;-62
2022/01/08 04:11:45;;;;;;;2.50;2.30;;;4.50;99.90;;;;;;4994184;28;20177;-62
2022/01/08 04:14:13;;;;;;;3.77;2.50;;;4.60;99.90;;;;;;4994286;28;20942;-62
2022/01/08 04:16:43;;;;;;;3.63;2.60;;;4.50;99.90;;;;;;4993559;28;20260;-62
2022/01/08 04:19:09;;;;;;;2.40;2.17;;;4.50;99.90;;;;;;4994434;28;20403;-62
2022/01/08 04:24:06;;;;;;;2.73;2.40;;;4.40;99.90;;;;;;4994546;28;20502;-62
2022/01/08 04:26:32;;;;;;;2.53;2.33;;;4.50;99.90;;;;;;4994146;28;20157;-63
2022/01/08 04:28:58;;;;;;;3.23;2.93;;;4.60;99.90;;;;;;4994340;28;20790;-62
2022/01/08 04:31:24;;;;;;;2.57;2.37;;;4.50;99.90;;;;;;4993398;28;20209;-62
2022/01/08 04:33:51;;;;;;;3.13;2.83;;;4.50;99.90;;;;;;4994034;28;20215;-62
2022/01/08 04:36:17;;;;;;;4.97;2.80;;;4.60;99.90;;;;;;4993817;28;20392;-63
2022/01/08 04:38:42;;;;;;;4.50;2.93;;;4.60;99.90;;;;;;4994079;28;20400;-62
2022/01/08 04:41:08;;;;;;;2.30;2.10;;;4.60;99.90;;;;;;4994127;28;20428;-62
2022/01/08 04:43:37;;;;;;;3.40;3.00;;;4.70;99.90;;;;;;4993999;28;20201;-63
2022/01/08 04:46:02;;;;;;;2.97;2.77;;;4.70;99.90;;;;;;4993469;28;20185;-62
2022/01/08 04:48:28;;;;;;;3.17;2.83;;;4.70;99.90;;;;;;4994663;28;20403;-60
2022/01/08 04:50:54;;;;;;;2.90;2.27;;;4.70;99.90;;;;;;4994105;28;20568;-60
2022/01/08 04:53:19;;;;;;;3.87;2.83;;;4.60;99.90;;;;;;4993950;28;20256;-61
2022/01/08 04:55:45;;;;;;;2.87;2.67;;;4.60;99.90;;;;;;4993847;28;20199;-61
2022/01/08 04:58:10;;;;;;;2.33;2.13;;;4.80;99.90;;;;;;4993935;28;20215;-61
2022/01/08 05:00:37;;;;;;;2.70;2.50;;;4.70;99.90;;;;;;4993200;28;20645;-61
2022/01/08 05:03:03;;;;;;;2.70;2.50;;;4.80;99.90;;;;;;4995567;28;20175;-61
2022/01/08 05:05:29;;;;;;;2.97;2.27;;;4.50;99.90;;;;;;4980425;28;20404;-62
2022/01/08 05:07:55;;;;;;;2.87;2.60;;;4.70;99.90;;;;;;4997386;28;20915;-61
2022/01/08 05:10:21;;;;;;;2.40;2.20;;;4.80;99.90;;;;;;4997504;28;20428;-62
2022/01/08 05:12:46;;;;;;;2.87;2.60;;;4.80;99.90;;;;;;4997211;28;20418;-61
2022/01/08 05:15:12;;;;;;;2.30;2.10;;;4.70;99.90;;;;;;4996980;28;20212;-63
2022/01/08 05:17:39;;;;;;;2.57;2.17;;;4.60;99.90;;;;;;4996986;28;20165;-61
2022/01/08 05:20:10;;;;;;;1.97;1.87;;;4.70;99.90;;;;;;4997142;28;20220;-62
2022/01/08 05:22:50;;;;;;;2.20;2.03;;;4.50;99.90;;;;;;4997102;28;20897;-61
2022/01/08 05:25:21;;;;;;;2.50;2.30;;;4.60;99.90;;;;;;4997357;28;20869;-60
2022/01/08 05:27:48;;;;;;;2.90;2.17;;;4.50;99.90;;;;;;4997240;28;20516;-61
2022/01/08 05:30:16;;;;;;;2.40;1.80;;;4.50;99.90;;;;;;4996533;28;20451;-60
2022/01/08 05:32:42;;;;;;;2.50;2.30;;;4.50;99.90;;;;;;4996460;28;20479;-61
2022/01/08 05:35:08;;;;;;;1.80;1.70;;;4.60;99.90;;;;;;4978927;28;20452;-61
2022/01/08 05:37:34;;;;;;;2.43;1.70;;;4.50;99.90;;;;;;4996558;28;20411;-61
2022/01/08 05:39:59;;;;;;;2.87;2.10;;;4.40;99.90;;;;;;4978966;28;20436;-61
2022/01/08 05:42:25;;;;;;;2.33;2.03;;;4.40;99.90;;;;;;4996708;28;20161;-62
2022/01/08 05:44:51;;;;;;;1.80;1.70;;;4.30;99.90;;;;;;4996729;28;20169;-62
2022/01/08 05:47:16;;;;;;;2.07;1.87;;;4.20;99.90;;;;;;4996869;28;20222;-63
2022/01/08 05:49:42;;;;;;;2.70;2.20;;;4.20;99.90;;;;;;4996964;28;20246;-62
2022/01/08 05:52:08;;;;;;;1.90;1.80;;;4.30;99.90;;;;;;4996689;28;20165;-63
2022/01/08 05:54:34;;;;;;;2.93;1.70;;;4.20;99.90;;;;;;4995959;28;20665;-62
2022/01/08 05:57:00;;;;;;;2.20;1.20;;;4.30;99.90;;;;;;4979879;28;20450;-63
2022/01/08 05:59:27;;;;;;;2.00;1.33;;;4.20;99.90;;;;;;4988978;28;20452;-62
2022/01/08 06:01:56;;;;;;;1.23;1.13;;;4.20;99.90;;;;;;4972847;28;20184;-61
2022/01/08 06:04:21;;;;;;;2.03;0.90;;;4.20;99.90;;;;;;4987347;28;20419;-61
2022/01/08 06:06:47;;;;;;;1.63;0.80;;;4.10;99.90;;;;;;4987618;28;20784;-61
2022/01/08 06:09:13;;;;;;;0.70;0.70;;;4.00;99.90;;;;;;4987143;28;20176;-61
2022/01/08 06:11:38;;;;;;;0.83;0.70;;;3.90;99.90;;;;;;4987113;28;20204;-59
2022/01/08 06:14:04;;;;;;;0.70;0.70;;;3.70;99.90;;;;;;4988430;28;20200;-61
2022/01/08 06:16:34;;;;;;;0.70;0.70;;;3.60;99.90;;;;;;4991031;28;20626;-61
2022/01/08 06:19:09;;;;;;;0.80;0.70;;;3.60;99.90;;;;;;4986868;28;20913;-61
2022/01/08 06:21:36;;;;;;;1.13;1.03;;;3.60;99.90;;;;;;4986805;28;20864;-61
2022/01/08 06:24:03;;;;;;;1.10;1.00;;;3.60;99.90;;;;;;4986711;28;20411;-62
2022/01/08 06:26:28;;;;;;;0.70;0.70;;;3.60;99.90;;;;;;4986446;28;20415;-61
2022/01/08 06:28:54;;;;;;;1.03;0.77;;;3.60;99.90;;;;;;4986294;28;21006;-62
2022/01/08 06:31:22;;;;;;;1.07;0.70;;;3.60;99.90;;;;;;4989216;28;20208;-61
2022/01/08 06:33:48;;;;;;;1.07;0.77;;;3.60;99.90;;;;;;4995655;28;20173;-63
2022/01/08 06:36:14;;;;;;;0.87;0.80;;;3.40;99.90;;;;;;4995613;28;20400;-62
2022/01/08 06:38:40;;;;;;;0.90;0.90;;;3.30;99.90;;;;;;4996257;28;20431;-62
2022/01/08 06:41:06;;;;;;;1.10;1.00;;;3.40;99.90;;;;;;4995085;28;20424;-62
2022/01/08 06:43:31;;;;;;;0.97;0.97;;;3.50;99.90;;;;;;4995230;28;20396;-61
2022/01/08 06:45:57;;;;;;;1.23;1.10;;;3.40;99.90;;;;;;4994381;28;20557;-62
2022/01/08 06:48:23;;;;;;;4.83;1.10;;;3.50;99.90;;;;;;4995512;28;20545;-62
2022/01/08 06:50:49;;;;;;;2.03;1.00;;;3.50;99.90;;;;;;4995460;28;20188;-62
2022/01/08 06:53:14;;;;;;;1.10;1.00;;;3.50;99.90;;;;;;4995261;28;20175;-62
2022/01/08 06:55:40;;;;;;;1.40;0.80;;;3.40;99.90;;;;;;4995096;28;20196;-62
2022/01/08 06:58:06;;;;;;;1.43;0.90;;;3.40;99.90;;;;;;4995058;28;20169;-62
2022/01/08 07:00:31;;;;;;;0.93;0.80;;;3.40;99.90;;;;;;4994106;28;20189;-62
2022/01/08 07:02:59;;;;;;;0.90;0.80;;;3.40;99.90;;;;;;4995194;28;20168;-62
2022/01/08 07:05:25;;;;;;;1.10;1.00;;;3.40;99.90;;;;;;4995338;28;20195;-62
2022/01/08 07:07:50;;;;;;;1.30;1.00;;;3.40;99.90;;;;;;4994009;28;20487;-62
2022/01/08 07:10:16;;;;;;;3.43;1.20;;;3.50;99.90;;;;;;4994320;28;20708;-62
2022/01/08 07:12:42;;;;;;;1.23;1.00;;;3.50;99.90;;;;;;4995010;28;20177;-62
2022/01/08 07:15:08;;;;;;;1.40;1.20;;;3.50;99.90;;;;;;4994729;28;20192;-61
2022/01/08 07:17:34;;;;;;;1.63;1.40;;;3.50;99.90;;;;;;4995359;28;20219;-62
2022/01/08 07:20:00;;;;;;;1.67;1.33;;;3.50;99.90;;;;;;4994926;28;20420;-59
2022/01/08 07:22:25;;;;;;;1.73;1.37;;;3.50;99.90;;;;;;4995000;28;20630;-61
2022/01/08 07:24:51;;;;;;;1.80;1.70;;;3.50;99.90;;;;;;4992576;28;20738;-61
2022/01/08 07:27:17;;;;;;;1.60;1.50;;;3.40;99.90;;;;;;4994316;28;20199;-62
2022/01/08 07:29:42;;;;;;;1.70;1.60;;;3.40;99.90;;;;;;4994432;28;20195;-64
2022/01/08 07:32:08;;;;;;;2.07;1.97;;;3.40;99.90;;;;;;4993845;28;20175;-62
2022/01/08 07:34:33;;;;;;;1.47;1.37;;;3.40;99.90;;;;;;4994221;28;20203;-61
2022/01/08 07:36:59;;;;;;;1.93;1.77;;;3.40;99.90;;;;;;4994223;28;20251;-61
2022/01/08 07:39:25;;;;;;;2.67;1.70;;;3.40;99.90;;;;;;4976759;28;20172;-61
2022/01/08 07:41:50;;;;;;;1.77;1.67;;;3.50;99.90;;;;;;4993779;28;20165;-61
2022/01/08 07:44:16;;;;;;;2.10;1.90;;;3.40;99.90;;;;;;4994466;28;20247;-61
2022/01/08 07:46:42;;;;;;;3.17;2.07;;;3.50;99.90;;;;;;4994147;28;20177;-61
2022/01/08 07:49:09;;;;;;;2.07;1.77;;;3.50;99.90;;;;;;4994236;28;20705;-62
2022/01/08 07:51:35;;;;;;;2.37;2.17;;;3.40;99.90;;;;;;4994303;28;20275;-62
2022/01/08 07:54:00;;;;;;;2.33;2.13;;;3.40;99.90;;;;;;4993367;28;20458;-61
2022/01/08 07:56:26;;;;;;;2.10;1.90;;;3.50;99.90;;;;;;4993388;28;20231;-63
2022/01/08 07:58:52;;;;;;;2.80;1.60;;;3.60;99.90;;;;;;4993945;28;20172;-63
2022/01/08 08:01:17;;;;;;;2.03;1.70;;;3.60;99.90;;;;;;4993834;28;20270;-63
2022/01/08 08:03:43;;;;;;;2.13;1.77;;;3.60;99.90;;;;;;4993843;28;20161;-63
2022/01/08 08:06:11;;;;;;;2.40;2.03;;;3.70;99.90;;;;;;4994088;28;20208;-62
2022/01/08 08:08:37;;;;;;;2.93;2.00;;;3.80;99.90;;;;;;4993583;28;20176;-62
2022/01/08 08:11:02;;;;;;;2.50;2.30;;;3.70;99.90;;;;;;4993696;28;20788;-63
2022/01/08 08:13:28;;;;;;;2.70;2.30;;;3.70;99.90;;;;;;4993831;28;20203;-63
2022/01/08 08:15:54;;;;;;;2.60;2.20;;;3.70;99.90;;;;;;4994332;28;20185;-62
2022/01/08 08:18:19;;;;;;;3.33;2.60;;;3.70;99.90;;;;;;4993843;28;20215;-62
2022/01/08 08:20:45;;;;;;;2.53;2.23;;;3.60;99.90;;;;;;4993639;28;20188;-62
2022/01/08 08:23:11;;;;;;;3.13;2.40;;;3.50;99.90;;;;;;4993990;28;20260;-62
2022/01/08 08:25:37;;;;;;;5.70;2.80;;;3.70;99.90;;;;;;4993553;28;20181;-61
2022/01/08 08:28:07;;;;;;;2.47;2.27;;;3.60;99.90;;;;;;4994572;28;20176;-63
2022/01/08 08:30:33;;;;;;;2.87;2.40;;;3.70;99.90;;;;;;4994278;28;20498;-62
2022/01/08 08:33:04;;;;;;;4.50;2.77;;;3.70;99.90;;;;;;4993940;28;20465;-62
2022/01/08 08:35:30;;;;;;;2.40;2.20;;;3.70;99.90;;;;;;4994019;28;20535;-62
2022/01/08 08:37:55;;;;;;;2.67;2.47;;;3.80;99.90;;;;;;4992945;28;20511;-61
2022/01/08 08:40:21;;;;;;;5.00;2.53;;;3.90;99.90;;;;;;4987436;28;20574;-61
2022/01/08 08:42:47;;;;;;;2.97;2.07;;;4.00;99.90;;;;;;4977854;28;20180;-61
2022/01/08 08:45:12;;;;;;;2.27;2.07;;;4.00;99.90;;;;;;4997933;28;20629;-62
2022/01/08 08:47:39;;;;;;;2.00;1.87;;;4.00;99.90;;;;;;4997406;28;20183;-62
2022/01/08 08:50:07;;;;;;;2.10;1.60;;;4.10;99.90;;;;;;4997739;28;20192;-62
2022/01/08 08:52:33;;;;;;;2.10;1.90;;;4.20;99.90;;;;;;4987482;28;20510;-62
2022/01/08 08:54:59;;;;;;;3.33;2.70;;;4.10;99.90;;;;;;4995384;28;20450;-64
2022/01/08 08:57:25;;;;;;;1.63;1.50;;;4.00;99.90;;;;;;4996990;28;20404;-63
2022/01/08 08:59:51;;;;;;;3.27;1.53;;;4.10;99.90;;;;;;4997167;28;20424;-62
2022/01/08 09:02:17;;;;;;;5.27;2.80;;;4.30;99.90;;;;;;4997336;28;20173;-63
2022/01/08 09:04:43;;;;;;;2.87;2.53;;;4.30;99.90;;;;;;4997407;28;20181;-63
2022/01/08 09:07:09;;;;;;;2.33;1.87;;;4.30;99.90;;;;;;4994397;28;20422;-62
2022/01/08 09:09:35;;;;;;;2.00;1.40;;;4.30;99.90;;;;;;4996937;28;20180;-63
2022/01/08 09:12:02;;;;;;;2.80;1.90;;;4.30;99.90;;;;;;4996858;28;20412;-62
2022/01/08 09:14:27;;;;;;;3.80;1.93;;;4.30;99.90;;;;;;4996753;28;20498;-63
2022/01/08 09:17:02;;;;;;;2.13;1.60;;;4.40;99.90;;;;;;4997214;28;20408;-62
2022/01/08 09:19:29;;;;;;;5.43;2.47;;;4.50;99.90;;;;;;4997143;28;20164;-62
2022/01/08 09:21:55;;;;;;;2.10;1.90;;;4.40;99.90;;;;;;4997467;28;20469;-62
2022/01/08 09:24:21;;;;;;;4.70;2.43;;;4.40;99.90;;;;;;4988347;28;21104;-61
2022/01/08 09:26:48;;;;;;;3.83;2.40;;;4.40;99.90;;;;;;4987277;28;20426;-60
2022/01/08 09:29:14;;;;;;;3.77;2.70;;;4.40;99.90;;;;;;4987449;28;20435;-60
2022/01/08 09:31:40;;;;;;;2.97;1.80;;;4.60;99.90;;;;;;4987463;28;20451;-62
2022/01/08 09:34:06;;;;;;;2.97;2.00;;;4.80;99.90;;;;;;4987504;28;20447;-61
2022/01/08 09:36:32;;;;;;;3.40;2.60;;;4.50;99.90;;;;;;4987410;28;20264;-60
2022/01/08 09:38:58;;;;;;;1.70;1.57;;;4.40;99.90;;;;;;4986734;28;20407;-61
2022/01/08 09:41:25;;;;;;;9.17;2.17;;;4.50;99.90;;;;;;4986974;28;20446;-61
2022/01/08 09:43:50;;;;;;;2.63;1.80;;;4.50;99.90;;;;;;4987440;28;20185;-61
2022/01/08 09:46:16;;;;;;;3.23;1.90;;;4.50;99.90;;;;;;4987414;28;20419;-62
2022/01/08 09:48:45;;;;;;;3.87;1.90;;;4.50;99.90;;;;;;4986544;28;20764;-62
2022/01/08 09:51:11;;;;;;;3.67;2.27;;;4.60;99.90;;;;;;4986684;28;20467;-61
2022/01/08 09:53:37;;;;;;;2.93;2.07;;;4.80;99.90;;;;;;4987028;28;20422;-62
2022/01/08 09:56:04;;;;;;;2.57;2.00;;;4.80;99.90;;;;;;4990172;23;20579;-60
2022/01/08 09:58:30;;;;;;;3.73;2.00;;;4.80;99.90;;;;;;4978622;28;20407;-60
2022/01/08 10:00:55;;;;;;;2.70;1.90;;;4.80;99.90;;;;;;4996087;28;20396;-60
2022/01/08 10:03:32;;;;;;;5.93;2.20;;;4.80;99.90;;;;;;4995719;28;20896;-56
2022/01/08 10:05:59;;;;;;;3.83;2.10;;;4.90;99.90;;;;;;4995543;28;20689;-58
2022/01/08 10:08:26;;;;;;;6.30;1.93;;;4.90;99.90;;;;;;4995654;28;20450;-58
2022/01/08 10:11:00;;;;;;;2.97;2.67;;;4.90;99.90;;;;;;4995374;28;20432;-60
2022/01/08 10:13:29;;;;;;;4.97;2.50;;;5.10;99.90;;;;;;4995655;28;20387;-60
2022/01/08 10:18:42;;;;;;;2.63;1.90;;;5.00;99.90;;;;;;4996077;28;20522;-60
2022/01/08 10:21:20;;;;;;;2.40;2.20;;;5.00;99.90;;;;;;4995826;28;20408;-57
2022/01/08 10:23:57;;;;;;;2.90;2.20;;;5.00;99.90;;;;;;4995740;28;20415;-59
2022/01/08 10:26:35;;;;;;;5.30;2.43;;;4.90;99.90;;;;;;4995457;28;20431;-60
2022/01/08 10:29:04;;;;;;;4.80;2.60;;;4.80;99.90;;;;;;4995488;28;20388;-58
2022/01/08 10:31:39;;;;;;;5.10;2.40;;;5.10;99.90;;;;;;4995279;28;20900;-60
2022/01/08 10:34:16;;;;;;;5.77;2.97;;;5.30;99.90;;;;;;4995527;28;20498;-62
2022/01/08 10:36:49;;;;;;;7.33;3.20;;;5.50;99.90;;;;;;4995382;28;20782;-59
2022/01/08 10:39:24;;;;;;;4.17;2.17;;;5.50;99.90;;;;;;4995517;28;20388;-61
2022/01/08 10:41:52;;;;;;;3.70;2.50;;;5.40;99.90;;;;;;4995322;28;20386;-61
2022/01/08 10:44:20;;;;;;;3.37;2.00;;;5.30;99.90;;;;;;4994956;28;20419;-60
2022/01/08 10:47:06;;;;;;;3.43;1.93;;;5.40;99.90;;;;;;4995260;28;20797;-61
2022/01/08 10:49:31;;;;;;;2.40;2.00;;;5.60;99.90;;;;;;4995452;28;20912;-60
2022/01/08 10:51:59;;;;;;;2.90;1.60;;;5.20;99.90;;;;;;4994819;28;20408;-61
2022/01/08 10:54:27;;;;;;;5.27;2.20;;;5.10;99.90;;;;;;4991735;28;20219;-61
2022/01/08 10:57:02;;;;;;;2.50;2.17;;;5.20;99.90;;;;;;4973914;28;20462;-61
2022/01/08 10:59:29;;;;;;;3.97;2.23;;;5.10;99.90;;;;;;4993740;28;20395;-61
2022/01/08 11:02:06;;;;;;;3.90;2.20;;;5.30;99.90;;;;;;4994722;28;20482;-61
2022/01/08 11:04:54;;;;;;;2.27;1.87;;;5.60;99.90;;;;;;4994933;28;20394;-60
2022/01/08 11:07:29;;;;;;;5.93;2.20;;;5.70;99.90;;;;;;4994554;28;20499;-60
2022/01/08 11:09:59;;;;;;;2.80;1.57;;;5.60;99.90;;;;;;4994382;28;20415;-61
2022/01/08 11:12:35;;;;;;;3.60;2.40;;;5.40;99.90;;;;;;4994190;28;20435;-60
2022/01/08 11:17:43;;;;;;;3.00;1.90;;;5.70;99.90;;;;;;4994615;28;20399;-61
2022/01/08 11:20:20;;;;;;;5.10;1.97;;;5.60;99.90;;;;;;4994296;28;20408;-60
2022/01/08 11:22:49;;;;;;;4.00;2.23;;;7.20;99.90;;;;;;4994238;28;20384;-60
2022/01/08 11:25:21;;;;;;;3.27;1.93;;;9.20;99.90;;;;;;4994096;28;20867;-61
2022/01/08 11:28:15;;;;;;;5.27;1.90;;;11.00;99.90;;;;;;4994411;28;20406;-61
2022/01/08 11:30:47;;;;;;;3.90;1.70;;;11.40;97.10;;;;;;4993765;28;20411;-61
2022/01/08 11:33:19;;;;;;;4.23;2.20;;;10.80;97.30;;;;;;4994059;28;20400;-61
2022/01/08 11:35:47;;;;;;;2.10;1.53;;;9.00;98.40;;;;;;4993883;28;20456;-61
2022/01/08 11:38:16;;;;;;;7.70;3.77;;;7.90;99.90;;;;;;4994246;28;20408;-61
2022/01/08 11:40:44;;;;;;;3.57;2.17;;;7.30;99.90;;;;;;4993873;28;20401;-61
2022/01/08 11:43:12;;;;;;;1.60;1.50;;;7.10;99.90;;;;;;4994052;28;20427;-61
2022/01/08 11:45:47;;;;;;;3.40;2.33;;;7.30;99.90;;;;;;4993794;28;20464;-61
2022/01/08 11:48:13;;;;;;;6.70;2.00;;;8.40;99.90;;;;;;4994137;28;20892;-60
2022/01/08 11:50:39;;;;;;;3.67;1.70;;;10.00;99.90;;;;;;4994081;28;20408;-61
2022/01/08 11:53:13;;;;;;;3.57;1.77;;;11.20;98.30;;;;;;4993738;28;20912;-61
2022/01/08 11:55:39;;;;;;;2.23;1.57;;;10.50;97.50;;;;;;4992876;28;20218;-61
2022/01/08 11:58:19;;;;;;;7.43;2.50;;;9.50;99.40;;;;;;4993835;28;20391;-61
2022/01/08 12:00:53;;;;;;;3.03;1.70;;;8.30;99.90;;;;;;4993628;28;20409;-61
2022/01/08 12:03:42;;;;;;;2.70;2.00;;;7.50;99.90;;;;;;4993848;28;20442;-61
2022/01/08 12:09:23;;;;;;;2.80;1.40;;;6.70;99.90;;;;;;4994112;28;20445;-60
2022/01/08 12:11:46;;;;;;;2.57;1.60;;;7.10;99.90;;;;;;4994860;28;20423;-60
2022/01/08 12:14:21;;;;;;;2.90;1.63;;;7.40;99.90;;;;;;4997709;28;20458;-60
2022/01/08 12:16:51;;;;;;;2.67;1.60;;;7.40;99.90;;;;;;4997668;28;20198;-61
2022/01/08 12:19:37;;;;;;;3.10;2.03;;;6.80;99.90;;;;;;4997861;28;20404;-61
2022/01/08 12:22:18;;;;;;;3.67;2.33;;;6.60;99.90;;;;;;4997849;28;20403;-61
2022/01/08 12:24:45;;;;;;;5.07;2.47;;;6.70;99.90;;;;;;4997472;28;20914;-61
2022/01/08 12:27:22;;;;;;;7.07;2.10;;;7.00;99.90;;;;;;4997127;28;20798;-58
2022/01/08 12:29:49;;;;;;;3.20;1.90;;;7.10;99.90;;;;;;4997650;28;20405;-60
2022/01/08 12:32:34;;;;;;;1.70;1.57;;;7.40;99.90;;;;;;4997620;28;20933;-60
2022/01/08 12:35:19;;;;;;;4.80;1.90;;;7.40;99.90;;;;;;4997631;28;20877;-60
2022/01/08 12:37:49;;;;;;;4.40;2.30;;;8.60;99.90;;;;;;4997640;28;20406;-61
2022/01/08 12:40:40;;;;;;;3.30;2.20;;;8.60;99.90;;;;;;4997247;28;20406;-61
2022/01/08 12:43:33;;;;;;;3.40;2.20;;;7.70;99.90;;;;;;4991120;28;20415;-61
2022/01/08 12:46:14;;;;;;;3.87;2.23;;;7.00;99.90;;;;;;4990038;28;20552;-61
2022/01/08 12:49:02;;;;;;;3.07;2.40;;;6.90;99.90;;;;;;4997377;28;20405;-61
2022/01/08 12:51:48;;;;;;;2.90;2.30;;;6.80;99.90;;;;;;4997077;28;20768;-61
2022/01/08 12:54:17;;;;;;;3.33;2.27;;;6.40;99.90;;;;;;4986684;28;20507;-61
2022/01/08 12:56:54;;;;;;;4.00;2.40;;;6.30;99.90;;;;;;4996664;28;20457;-61
2022/01/08 12:59:21;;;;;;;4.97;1.80;;;6.20;99.90;;;;;;4997387;28;20424;-61
2022/01/08 13:01:48;;;;;;;3.57;2.00;;;6.20;99.90;;;;;;4996997;28;20842;-61
2022/01/08 13:04:17;;;;;;;3.63;2.20;;;6.20;99.90;;;;;;4996922;28;20508;-60
2022/01/08 13:06:44;;;;;;;3.30;2.57;;;6.20;99.90;;;;;;4997160;28;20441;-60
2022/01/08 13:09:09;;;;;;;5.40;2.20;;;6.30;99.90;;;;;;4996906;28;20976;-61
2022/01/08 13:11:37;;;;;;;2.10;1.90;;;6.20;99.90;;;;;;4996419;28;20494;-61
2022/01/08 13:14:09;;;;;;;3.47;1.97;;;6.30;99.90;;;;;;4996930;28;20460;-61
2022/01/08 13:16:41;;;;;;;3.70;1.83;;;6.30;99.90;;;;;;4996804;28;20795;-61
2022/01/08 13:19:10;;;;;;;3.90;2.70;;;6.40;99.90;;;;;;4996839;28;20764;-61
2022/01/08 13:21:36;;;;;;;1.90;1.70;;;6.60;99.90;;;;;;4996772;28;20481;-61
2022/01/08 13:24:05;;;;;;;2.27;1.90;;;6.70;99.90;;;;;;4995075;28;20416;-61
2022/01/08 13:26:36;;;;;;;3.13;2.40;;;6.60;99.90;;;;;;4996007;28;21036;-62
2022/01/08 13:29:20;;;;;;;5.03;1.93;;;6.70;99.90;;;;;;4978968;28;20445;-60
2022/01/08 13:31:49;;;;;;;3.43;2.57;;;6.50;99.90;;;;;;4996050;28;20403;-61
2022/01/08 13:34:16;;;;;;;5.87;2.80;;;6.40;99.90;;;;;;4996216;28;20454;-61